sensor_id;sensor_type;location;lat;lon;timestamp;P1;durP1;ratioP1;P2;durP2;ratioP2
46753;SDS011;32500;50.620;3.400;2023-09-18T00:00:02;107.05;;;57.55;;
46753;SDS011;32500;50.620;3.400;2023-09-18T00:02:30;106.68;;;57.17;;
46753;SDS011;32500;50.620;3.400;2023-09-18T00:04:56;105.63;;;56.50;;
46753;SDS011;32500;50.620;3.400;2023-09-18T00:07:22;107.28;;;57.72;;
46753;SDS011;32500;50.620;3.400;2023-09-18T00:09:47;107.30;;;56.70;;
46753;SDS011;32500;50.620;3.400;2023-09-18T00:12:14;106.45;;;57.20;;
46753;SDS011;32500;50.620;3.400;2023-09-18T00:14:39;107.63;;;57.72;;
46753;SDS011;32500;50.620;3.400;2023-09-18T00:17:06;106.32;;;57.30;;
46753;SDS011;32500;50.620;3.400;2023-09-18T00:19:32;106.55;;;57.10;;
46753;SDS011;32500;50.620;3.400;2023-09-18T00:21:58;107.22;;;57.40;;
46753;SDS011;32500;50.620;3.400;2023-09-18T00:24:26;105.90;;;57.15;;
46753;SDS011;32500;50.620;3.400;2023-09-18T00:26:52;106.05;;;56.33;;
46753;SDS011;32500;50.620;3.400;2023-09-18T00:29:18;105.53;;;56.65;;
46753;SDS011;32500;50.620;3.400;2023-09-18T00:31:44;106.28;;;56.80;;
46753;SDS011;32500;50.620;3.400;2023-09-18T00:34:09;105.43;;;56.85;;
46753;SDS011;32500;50.620;3.400;2023-09-18T00:36:35;106.05;;;56.88;;
46753;SDS011;32500;50.620;3.400;2023-09-18T00:39:00;107.22;;;57.58;;
46753;SDS011;32500;50.620;3.400;2023-09-18T00:41:26;106.00;;;56.95;;
46753;SDS011;32500;50.620;3.400;2023-09-18T00:43:54;105.75;;;56.78;;
46753;SDS011;32500;50.620;3.400;2023-09-18T00:46:19;106.05;;;56.63;;
46753;SDS011;32500;50.620;3.400;2023-09-18T00:48:46;107.20;;;57.67;;
46753;SDS011;32500;50.620;3.400;2023-09-18T00:51:12;106.78;;;56.50;;
46753;SDS011;32500;50.620;3.400;2023-09-18T00:53:38;105.47;;;56.55;;
46753;SDS011;32500;50.620;3.400;2023-09-18T00:56:08;106.15;;;56.15;;
46753;SDS011;32500;50.620;3.400;2023-09-18T00:58:35;106.90;;;57.13;;
46753;SDS011;32500;50.620;3.400;2023-09-18T01:01:01;106.57;;;57.17;;
46753;SDS011;32500;50.620;3.400;2023-09-18T01:03:29;107.13;;;57.38;;
46753;SDS011;32500;50.620;3.400;2023-09-18T01:05:54;107.13;;;57.60;;
46753;SDS011;32500;50.620;3.400;2023-09-18T01:08:20;105.45;;;56.47;;
46753;SDS011;32500;50.620;3.400;2023-09-18T01:10:48;105.97;;;56.75;;
46753;SDS011;32500;50.620;3.400;2023-09-18T01:13:27;106.07;;;56.42;;
46753;SDS011;32500;50.620;3.400;2023-09-18T01:16:02;105.45;;;56.60;;
46753;SDS011;32500;50.620;3.400;2023-09-18T01:18:59;105.63;;;56.00;;
46753;SDS011;32500;50.620;3.400;2023-09-18T01:21:28;104.80;;;55.60;;
46753;SDS011;32500;50.620;3.400;2023-09-18T01:23:53;105.32;;;56.58;;
46753;SDS011;32500;50.620;3.400;2023-09-18T01:26:19;105.78;;;56.05;;
46753;SDS011;32500;50.620;3.400;2023-09-18T01:28:44;106.22;;;57.22;;
46753;SDS011;32500;50.620;3.400;2023-09-18T01:31:10;106.68;;;56.75;;
46753;SDS011;32500;50.620;3.400;2023-09-18T01:33:36;106.65;;;57.55;;
46753;SDS011;32500;50.620;3.400;2023-09-18T01:36:03;106.30;;;56.20;;
46753;SDS011;32500;50.620;3.400;2023-09-18T01:38:32;107.00;;;57.72;;
46753;SDS011;32500;50.620;3.400;2023-09-18T01:40:58;105.53;;;56.15;;
46753;SDS011;32500;50.620;3.400;2023-09-18T01:43:25;105.35;;;56.53;;
46753;SDS011;32500;50.620;3.400;2023-09-18T01:45:51;105.45;;;56.20;;
46753;SDS011;32500;50.620;3.400;2023-09-18T01:48:18;106.68;;;57.33;;
46753;SDS011;32500;50.620;3.400;2023-09-18T01:50:43;105.07;;;56.40;;
46753;SDS011;32500;50.620;3.400;2023-09-18T01:53:09;106.18;;;56.88;;
46753;SDS011;32500;50.620;3.400;2023-09-18T01:55:35;105.25;;;55.78;;
46753;SDS011;32500;50.620;3.400;2023-09-18T01:58:00;104.10;;;55.55;;
46753;SDS011;32500;50.620;3.400;2023-09-18T02:00:26;105.38;;;56.33;;
46753;SDS011;32500;50.620;3.400;2023-09-18T02:02:51;107.00;;;57.45;;
46753;SDS011;32500;50.620;3.400;2023-09-18T02:05:17;104.25;;;55.80;;
46753;SDS011;32500;50.620;3.400;2023-09-18T02:07:43;104.63;;;56.13;;
46753;SDS011;32500;50.620;3.400;2023-09-18T02:10:08;105.35;;;56.50;;
46753;SDS011;32500;50.620;3.400;2023-09-18T02:12:34;106.57;;;56.67;;
46753;SDS011;32500;50.620;3.400;2023-09-18T02:14:59;105.55;;;56.80;;
46753;SDS011;32500;50.620;3.400;2023-09-18T02:17:29;106.80;;;56.40;;
46753;SDS011;32500;50.620;3.400;2023-09-18T02:19:55;106.20;;;56.40;;
46753;SDS011;32500;50.620;3.400;2023-09-18T02:22:20;104.18;;;55.63;;
46753;SDS011;32500;50.620;3.400;2023-09-18T02:24:46;106.10;;;56.38;;
46753;SDS011;32500;50.620;3.400;2023-09-18T02:27:12;105.03;;;56.95;;
46753;SDS011;32500;50.620;3.400;2023-09-18T02:29:37;104.85;;;56.00;;
46753;SDS011;32500;50.620;3.400;2023-09-18T02:32:03;105.32;;;56.50;;
46753;SDS011;32500;50.620;3.400;2023-09-18T02:34:29;105.57;;;55.78;;
46753;SDS011;32500;50.620;3.400;2023-09-18T02:36:54;106.63;;;56.92;;
46753;SDS011;32500;50.620;3.400;2023-09-18T02:39:20;105.75;;;55.75;;
46753;SDS011;32500;50.620;3.400;2023-09-18T02:41:46;105.00;;;56.28;;
46753;SDS011;32500;50.620;3.400;2023-09-18T02:44:11;106.55;;;56.67;;
46753;SDS011;32500;50.620;3.400;2023-09-18T02:46:37;103.65;;;55.33;;
46753;SDS011;32500;50.620;3.400;2023-09-18T02:49:03;106.20;;;56.03;;
46753;SDS011;32500;50.620;3.400;2023-09-18T02:51:29;104.90;;;56.05;;
46753;SDS011;32500;50.620;3.400;2023-09-18T02:53:57;104.82;;;56.00;;
46753;SDS011;32500;50.620;3.400;2023-09-18T02:56:22;105.45;;;55.92;;
46753;SDS011;32500;50.620;3.400;2023-09-18T02:58:48;105.18;;;56.03;;
46753;SDS011;32500;50.620;3.400;2023-09-18T03:01:14;104.93;;;56.53;;
46753;SDS011;32500;50.620;3.400;2023-09-18T03:03:40;103.47;;;55.50;;
46753;SDS011;32500;50.620;3.400;2023-09-18T03:06:06;106.65;;;56.97;;
46753;SDS011;32500;50.620;3.400;2023-09-18T03:08:32;105.03;;;56.25;;
46753;SDS011;32500;50.620;3.400;2023-09-18T03:10:58;104.65;;;55.55;;
46753;SDS011;32500;50.620;3.400;2023-09-18T03:13:26;104.88;;;56.50;;
46753;SDS011;32500;50.620;3.400;2023-09-18T03:15:52;105.97;;;56.10;;
46753;SDS011;32500;50.620;3.400;2023-09-18T03:18:18;105.72;;;56.75;;
46753;SDS011;32500;50.620;3.400;2023-09-18T03:20:43;106.18;;;57.00;;
46753;SDS011;32500;50.620;3.400;2023-09-18T03:23:09;107.00;;;57.13;;
46753;SDS011;32500;50.620;3.400;2023-09-18T03:25:35;104.93;;;56.20;;
46753;SDS011;32500;50.620;3.400;2023-09-18T03:28:02;105.32;;;56.55;;
46753;SDS011;32500;50.620;3.400;2023-09-18T03:30:28;105.72;;;56.15;;
46753;SDS011;32500;50.620;3.400;2023-09-18T03:32:54;105.22;;;56.95;;
46753;SDS011;32500;50.620;3.400;2023-09-18T03:35:20;104.43;;;56.22;;
46753;SDS011;32500;50.620;3.400;2023-09-18T03:37:49;104.78;;;55.92;;
46753;SDS011;32500;50.620;3.400;2023-09-18T03:40:17;104.55;;;56.00;;
46753;SDS011;32500;50.620;3.400;2023-09-18T03:42:52;105.03;;;56.42;;
46753;SDS011;32500;50.620;3.400;2023-09-18T03:45:18;104.50;;;56.45;;
46753;SDS011;32500;50.620;3.400;2023-09-18T03:47:44;104.35;;;55.72;;
46753;SDS011;32500;50.620;3.400;2023-09-18T03:50:10;105.28;;;56.42;;
46753;SDS011;32500;50.620;3.400;2023-09-18T03:52:37;105.05;;;56.30;;
46753;SDS011;32500;50.620;3.400;2023-09-18T03:55:04;104.45;;;56.30;;
46753;SDS011;32500;50.620;3.400;2023-09-18T03:57:30;104.25;;;56.30;;
46753;SDS011;32500;50.620;3.400;2023-09-18T03:59:55;105.00;;;56.83;;
46753;SDS011;32500;50.620;3.400;2023-09-18T04:02:21;104.82;;;56.15;;
46753;SDS011;32500;50.620;3.400;2023-09-18T04:04:48;104.18;;;56.33;;
46753;SDS011;32500;50.620;3.400;2023-09-18T04:07:14;104.43;;;55.78;;
46753;SDS011;32500;50.620;3.400;2023-09-18T04:09:41;103.85;;;56.15;;
46753;SDS011;32500;50.620;3.400;2023-09-18T04:12:07;103.68;;;55.90;;
46753;SDS011;32500;50.620;3.400;2023-09-18T04:14:33;104.82;;;56.20;;
46753;SDS011;32500;50.620;3.400;2023-09-18T04:16:58;104.45;;;56.38;;
46753;SDS011;32500;50.620;3.400;2023-09-18T04:19:25;103.80;;;55.88;;
46753;SDS011;32500;50.620;3.400;2023-09-18T04:21:51;104.65;;;56.05;;
46753;SDS011;32500;50.620;3.400;2023-09-18T04:24:17;104.65;;;56.33;;
46753;SDS011;32500;50.620;3.400;2023-09-18T04:26:43;105.10;;;56.08;;
46753;SDS011;32500;50.620;3.400;2023-09-18T04:29:08;106.53;;;56.08;;
46753;SDS011;32500;50.620;3.400;2023-09-18T04:31:34;103.50;;;55.42;;
46753;SDS011;32500;50.620;3.400;2023-09-18T04:34:00;104.05;;;55.80;;
46753;SDS011;32500;50.620;3.400;2023-09-18T04:36:25;105.72;;;56.60;;
46753;SDS011;32500;50.620;3.400;2023-09-18T04:38:51;104.88;;;55.83;;
46753;SDS011;32500;50.620;3.400;2023-09-18T04:41:17;103.95;;;55.47;;
46753;SDS011;32500;50.620;3.400;2023-09-18T04:43:42;105.53;;;56.08;;
46753;SDS011;32500;50.620;3.400;2023-09-18T04:46:08;104.30;;;55.55;;
46753;SDS011;32500;50.620;3.400;2023-09-18T04:48:36;104.68;;;56.00;;
46753;SDS011;32500;50.620;3.400;2023-09-18T04:51:12;104.93;;;56.35;;
46753;SDS011;32500;50.620;3.400;2023-09-18T04:53:44;114.25;;;57.15;;
46753;SDS011;32500;50.620;3.400;2023-09-18T04:56:09;106.68;;;56.25;;
46753;SDS011;32500;50.620;3.400;2023-09-18T04:58:35;104.90;;;56.25;;
46753;SDS011;32500;50.620;3.400;2023-09-18T05:01:02;105.03;;;56.35;;
46753;SDS011;32500;50.620;3.400;2023-09-18T05:03:30;105.05;;;56.20;;
46753;SDS011;32500;50.620;3.400;2023-09-18T05:08:26;105.30;;;56.50;;
46753;SDS011;32500;50.620;3.400;2023-09-18T05:10:52;105.40;;;55.97;;
46753;SDS011;32500;50.620;3.400;2023-09-18T05:13:18;106.07;;;56.25;;
46753;SDS011;32500;50.620;3.400;2023-09-18T05:15:43;106.25;;;56.30;;
46753;SDS011;32500;50.620;3.400;2023-09-18T05:18:09;110.35;;;56.25;;
46753;SDS011;32500;50.620;3.400;2023-09-18T05:20:35;108.13;;;56.58;;
46753;SDS011;32500;50.620;3.400;2023-09-18T05:23:00;109.35;;;56.83;;
46753;SDS011;32500;50.620;3.400;2023-09-18T05:25:28;108.85;;;56.55;;
46753;SDS011;32500;50.620;3.400;2023-09-18T05:27:56;107.88;;;56.92;;
46753;SDS011;32500;50.620;3.400;2023-09-18T05:30:26;111.20;;;56.88;;
46753;SDS011;32500;50.620;3.400;2023-09-18T05:32:53;111.47;;;56.63;;
46753;SDS011;32500;50.620;3.400;2023-09-18T05:35:19;110.85;;;57.40;;
46753;SDS011;32500;50.620;3.400;2023-09-18T05:37:46;110.07;;;57.13;;
46753;SDS011;32500;50.620;3.400;2023-09-18T05:40:12;110.68;;;57.05;;
46753;SDS011;32500;50.620;3.400;2023-09-18T05:42:39;110.82;;;57.42;;
46753;SDS011;32500;50.620;3.400;2023-09-18T05:45:09;111.53;;;57.88;;
46753;SDS011;32500;50.620;3.400;2023-09-18T05:47:36;116.10;;;58.78;;
46753;SDS011;32500;50.620;3.400;2023-09-18T05:50:02;118.10;;;59.72;;
46753;SDS011;32500;50.620;3.400;2023-09-18T05:52:29;119.80;;;60.05;;
46753;SDS011;32500;50.620;3.400;2023-09-18T05:54:55;115.50;;;58.47;;
46753;SDS011;32500;50.620;3.400;2023-09-18T05:57:20;114.88;;;58.47;;
46753;SDS011;32500;50.620;3.400;2023-09-18T05:59:46;111.07;;;57.10;;
46753;SDS011;32500;50.620;3.400;2023-09-18T06:02:11;108.43;;;56.80;;
46753;SDS011;32500;50.620;3.400;2023-09-18T06:04:37;106.22;;;55.67;;
46753;SDS011;32500;50.620;3.400;2023-09-18T06:07:03;107.35;;;55.83;;
46753;SDS011;32500;50.620;3.400;2023-09-18T06:09:29;107.82;;;55.92;;
46753;SDS011;32500;50.620;3.400;2023-09-18T06:11:54;105.28;;;55.15;;
46753;SDS011;32500;50.620;3.400;2023-09-18T06:14:20;104.18;;;55.65;;
46753;SDS011;32500;50.620;3.400;2023-09-18T06:16:46;108.20;;;55.20;;
46753;SDS011;32500;50.620;3.400;2023-09-18T06:19:11;105.00;;;55.45;;
46753;SDS011;32500;50.620;3.400;2023-09-18T06:21:37;105.40;;;55.80;;
46753;SDS011;32500;50.620;3.400;2023-09-18T06:24:03;105.15;;;55.90;;
46753;SDS011;32500;50.620;3.400;2023-09-18T06:26:28;106.32;;;55.67;;
46753;SDS011;32500;50.620;3.400;2023-09-18T06:28:54;104.97;;;55.78;;
46753;SDS011;32500;50.620;3.400;2023-09-18T06:31:20;105.68;;;55.63;;
46753;SDS011;32500;50.620;3.400;2023-09-18T06:33:46;104.88;;;55.15;;
46753;SDS011;32500;50.620;3.400;2023-09-18T06:36:12;103.85;;;55.30;;
46753;SDS011;32500;50.620;3.400;2023-09-18T06:38:38;105.47;;;55.55;;
46753;SDS011;32500;50.620;3.400;2023-09-18T06:41:03;106.20;;;55.47;;
46753;SDS011;32500;50.620;3.400;2023-09-18T06:43:29;110.43;;;55.65;;
46753;SDS011;32500;50.620;3.400;2023-09-18T06:45:55;106.75;;;55.85;;
46753;SDS011;32500;50.620;3.400;2023-09-18T06:48:22;104.85;;;55.53;;
46753;SDS011;32500;50.620;3.400;2023-09-18T06:50:49;105.13;;;55.90;;
46753;SDS011;32500;50.620;3.400;2023-09-18T06:53:14;106.47;;;55.67;;
46753;SDS011;32500;50.620;3.400;2023-09-18T06:55:40;105.00;;;55.72;;
46753;SDS011;32500;50.620;3.400;2023-09-18T06:58:06;105.53;;;55.60;;
46753;SDS011;32500;50.620;3.400;2023-09-18T07:00:32;105.97;;;55.65;;
46753;SDS011;32500;50.620;3.400;2023-09-18T07:02:57;106.82;;;55.60;;
46753;SDS011;32500;50.620;3.400;2023-09-18T07:05:23;104.38;;;55.45;;
46753;SDS011;32500;50.620;3.400;2023-09-18T07:07:49;103.95;;;55.28;;
46753;SDS011;32500;50.620;3.400;2023-09-18T07:10:15;105.43;;;55.47;;
46753;SDS011;32500;50.620;3.400;2023-09-18T07:12:40;105.65;;;55.92;;
46753;SDS011;32500;50.620;3.400;2023-09-18T07:15:06;106.28;;;55.85;;
46753;SDS011;32500;50.620;3.400;2023-09-18T07:17:32;106.10;;;55.83;;
46753;SDS011;32500;50.620;3.400;2023-09-18T07:19:58;105.80;;;55.85;;
46753;SDS011;32500;50.620;3.400;2023-09-18T07:22:25;104.80;;;55.58;;
46753;SDS011;32500;50.620;3.400;2023-09-18T07:24:50;105.78;;;55.90;;
46753;SDS011;32500;50.620;3.400;2023-09-18T07:27:16;104.90;;;55.65;;
46753;SDS011;32500;50.620;3.400;2023-09-18T07:29:41;106.93;;;55.83;;
46753;SDS011;32500;50.620;3.400;2023-09-18T07:32:07;107.40;;;55.92;;
46753;SDS011;32500;50.620;3.400;2023-09-18T07:34:34;106.63;;;55.95;;
46753;SDS011;32500;50.620;3.400;2023-09-18T07:37:00;106.05;;;56.10;;
46753;SDS011;32500;50.620;3.400;2023-09-18T07:39:26;105.47;;;56.00;;
46753;SDS011;32500;50.620;3.400;2023-09-18T07:41:51;104.03;;;55.65;;
46753;SDS011;32500;50.620;3.400;2023-09-18T07:44:20;104.15;;;56.20;;
46753;SDS011;32500;50.620;3.400;2023-09-18T07:46:46;105.95;;;55.72;;
46753;SDS011;32500;50.620;3.400;2023-09-18T07:49:12;104.68;;;55.90;;
46753;SDS011;32500;50.620;3.400;2023-09-18T07:51:39;107.70;;;55.90;;
46753;SDS011;32500;50.620;3.400;2023-09-18T07:54:04;105.68;;;55.72;;
46753;SDS011;32500;50.620;3.400;2023-09-18T07:56:32;103.35;;;55.47;;
46753;SDS011;32500;50.620;3.400;2023-09-18T07:58:59;105.50;;;56.13;;
46753;SDS011;32500;50.620;3.400;2023-09-18T08:01:25;105.38;;;56.00;;
46753;SDS011;32500;50.620;3.400;2023-09-18T08:03:51;104.63;;;55.88;;
46753;SDS011;32500;50.620;3.400;2023-09-18T08:06:16;104.30;;;55.78;;
46753;SDS011;32500;50.620;3.400;2023-09-18T08:08:44;104.82;;;55.63;;
46753;SDS011;32500;50.620;3.400;2023-09-18T08:11:10;104.15;;;55.67;;
46753;SDS011;32500;50.620;3.400;2023-09-18T08:13:36;104.85;;;56.22;;
46753;SDS011;32500;50.620;3.400;2023-09-18T08:16:02;105.72;;;56.40;;
46753;SDS011;32500;50.620;3.400;2023-09-18T08:18:31;108.70;;;56.40;;
46753;SDS011;32500;50.620;3.400;2023-09-18T08:20:56;108.43;;;57.25;;
46753;SDS011;32500;50.620;3.400;2023-09-18T08:23:24;107.63;;;57.17;;
46753;SDS011;32500;50.620;3.400;2023-09-18T08:25:49;106.43;;;58.05;;
46753;SDS011;32500;50.620;3.400;2023-09-18T08:28:16;107.03;;;57.15;;
46753;SDS011;32500;50.620;3.400;2023-09-18T08:30:42;107.60;;;57.08;;
46753;SDS011;32500;50.620;3.400;2023-09-18T08:33:12;106.25;;;57.05;;
46753;SDS011;32500;50.620;3.400;2023-09-18T08:35:38;106.18;;;56.80;;
46753;SDS011;32500;50.620;3.400;2023-09-18T08:38:04;105.70;;;56.92;;
46753;SDS011;32500;50.620;3.400;2023-09-18T08:40:30;106.68;;;56.95;;
46753;SDS011;32500;50.620;3.400;2023-09-18T08:42:56;105.88;;;56.50;;
46753;SDS011;32500;50.620;3.400;2023-09-18T08:45:35;106.68;;;57.05;;
46753;SDS011;32500;50.620;3.400;2023-09-18T08:48:20;108.40;;;56.80;;
46753;SDS011;32500;50.620;3.400;2023-09-18T08:50:49;105.95;;;56.67;;
46753;SDS011;32500;50.620;3.400;2023-09-18T08:53:16;106.03;;;56.97;;
46753;SDS011;32500;50.620;3.400;2023-09-18T08:55:42;106.25;;;56.92;;
46753;SDS011;32500;50.620;3.400;2023-09-18T08:58:08;108.10;;;57.42;;
46753;SDS011;32500;50.620;3.400;2023-09-18T09:00:36;109.07;;;57.67;;
46753;SDS011;32500;50.620;3.400;2023-09-18T09:03:02;107.30;;;57.35;;
46753;SDS011;32500;50.620;3.400;2023-09-18T09:05:29;108.80;;;57.70;;
46753;SDS011;32500;50.620;3.400;2023-09-18T09:07:55;105.85;;;57.00;;
46753;SDS011;32500;50.620;3.400;2023-09-18T09:10:21;106.95;;;57.58;;
46753;SDS011;32500;50.620;3.400;2023-09-18T09:12:51;107.90;;;57.08;;
46753;SDS011;32500;50.620;3.400;2023-09-18T09:15:26;106.50;;;57.35;;
46753;SDS011;32500;50.620;3.400;2023-09-18T09:18:04;107.18;;;57.03;;
46753;SDS011;32500;50.620;3.400;2023-09-18T09:20:30;107.78;;;57.40;;
46753;SDS011;32500;50.620;3.400;2023-09-18T09:23:00;105.90;;;57.05;;
46753;SDS011;32500;50.620;3.400;2023-09-18T09:25:30;106.57;;;56.90;;
46753;SDS011;32500;50.620;3.400;2023-09-18T09:28:00;106.18;;;56.80;;
46753;SDS011;32500;50.620;3.400;2023-09-18T09:30:31;107.53;;;56.83;;
46753;SDS011;32500;50.620;3.400;2023-09-18T09:32:58;107.70;;;57.08;;
46753;SDS011;32500;50.620;3.400;2023-09-18T09:35:28;106.20;;;56.88;;
46753;SDS011;32500;50.620;3.400;2023-09-18T09:37:58;106.20;;;56.97;;
46753;SDS011;32500;50.620;3.400;2023-09-18T09:40:36;106.03;;;57.17;;
46753;SDS011;32500;50.620;3.400;2023-09-18T09:43:05;105.22;;;56.95;;
46753;SDS011;32500;50.620;3.400;2023-09-18T09:45:35;107.82;;;57.28;;
46753;SDS011;32500;50.620;3.400;2023-09-18T09:48:02;105.60;;;56.70;;
46753;SDS011;32500;50.620;3.400;2023-09-18T09:50:29;107.40;;;56.88;;
46753;SDS011;32500;50.620;3.400;2023-09-18T09:52:57;105.53;;;56.80;;
46753;SDS011;32500;50.620;3.400;2023-09-18T09:55:30;105.63;;;56.70;;
46753;SDS011;32500;50.620;3.400;2023-09-18T09:57:58;107.32;;;57.10;;
46753;SDS011;32500;50.620;3.400;2023-09-18T10:00:26;106.95;;;56.70;;
46753;SDS011;32500;50.620;3.400;2023-09-18T10:03:00;106.20;;;57.25;;
46753;SDS011;32500;50.620;3.400;2023-09-18T10:05:32;107.68;;;57.05;;
46753;SDS011;32500;50.620;3.400;2023-09-18T10:08:01;105.97;;;56.88;;
46753;SDS011;32500;50.620;3.400;2023-09-18T10:10:32;107.22;;;56.97;;
46753;SDS011;32500;50.620;3.400;2023-09-18T10:13:01;107.57;;;56.78;;
46753;SDS011;32500;50.620;3.400;2023-09-18T10:15:32;107.03;;;57.00;;
46753;SDS011;32500;50.620;3.400;2023-09-18T10:18:03;107.15;;;56.80;;
46753;SDS011;32500;50.620;3.400;2023-09-18T10:20:33;107.90;;;56.97;;
46753;SDS011;32500;50.620;3.400;2023-09-18T10:23:09;106.80;;;56.90;;
46753;SDS011;32500;50.620;3.400;2023-09-18T10:28:16;106.13;;;57.03;;
46753;SDS011;32500;50.620;3.400;2023-09-18T10:30:42;106.93;;;57.00;;
46753;SDS011;32500;50.620;3.400;2023-09-18T10:33:09;106.80;;;57.28;;
46753;SDS011;32500;50.620;3.400;2023-09-18T10:35:34;106.78;;;56.92;;
46753;SDS011;32500;50.620;3.400;2023-09-18T10:38:01;108.25;;;57.38;;
46753;SDS011;32500;50.620;3.400;2023-09-18T10:40:28;107.40;;;57.33;;
46753;SDS011;32500;50.620;3.400;2023-09-18T10:42:55;107.85;;;56.97;;
46753;SDS011;32500;50.620;3.400;2023-09-18T10:45:23;108.15;;;56.92;;
46753;SDS011;32500;50.620;3.400;2023-09-18T10:47:49;106.82;;;57.10;;
46753;SDS011;32500;50.620;3.400;2023-09-18T10:50:25;107.88;;;56.97;;
46753;SDS011;32500;50.620;3.400;2023-09-18T10:52:52;109.20;;;57.13;;
46753;SDS011;32500;50.620;3.400;2023-09-18T10:55:18;107.68;;;56.85;;
46753;SDS011;32500;50.620;3.400;2023-09-18T11:00:48;108.05;;;56.95;;
46753;SDS011;32500;50.620;3.400;2023-09-18T11:03:15;107.43;;;57.45;;
46753;SDS011;32500;50.620;3.400;2023-09-18T11:05:45;107.45;;;57.33;;
46753;SDS011;32500;50.620;3.400;2023-09-18T11:08:31;108.13;;;57.00;;
46753;SDS011;32500;50.620;3.400;2023-09-18T11:11:05;109.03;;;57.25;;
46753;SDS011;32500;50.620;3.400;2023-09-18T11:13:39;106.35;;;57.20;;
46753;SDS011;32500;50.620;3.400;2023-09-18T11:21:23;107.28;;;57.10;;
46753;SDS011;32500;50.620;3.400;2023-09-18T11:23:59;107.10;;;57.42;;
46753;SDS011;32500;50.620;3.400;2023-09-18T11:26:33;109.75;;;57.58;;
46753;SDS011;32500;50.620;3.400;2023-09-18T11:29:00;107.93;;;57.10;;
46753;SDS011;32500;50.620;3.400;2023-09-18T11:31:49;109.55;;;57.47;;
46753;SDS011;32500;50.620;3.400;2023-09-18T11:36:59;107.75;;;57.55;;
46753;SDS011;32500;50.620;3.400;2023-09-18T11:39:37;108.90;;;57.53;;
46753;SDS011;32500;50.620;3.400;2023-09-18T11:44:37;108.38;;;57.30;;
46753;SDS011;32500;50.620;3.400;2023-09-18T11:47:07;107.82;;;57.22;;
46753;SDS011;32500;50.620;3.400;2023-09-18T11:49:37;107.80;;;57.42;;
46753;SDS011;32500;50.620;3.400;2023-09-18T11:52:06;107.03;;;57.30;;
46753;SDS011;32500;50.620;3.400;2023-09-18T11:54:32;108.28;;;57.50;;
46753;SDS011;32500;50.620;3.400;2023-09-18T11:57:02;107.65;;;57.22;;
46753;SDS011;32500;50.620;3.400;2023-09-18T11:59:38;108.95;;;57.08;;
46753;SDS011;32500;50.620;3.400;2023-09-18T12:02:04;109.53;;;57.05;;
46753;SDS011;32500;50.620;3.400;2023-09-18T12:04:33;107.82;;;56.70;;
46753;SDS011;32500;50.620;3.400;2023-09-18T12:07:00;109.25;;;56.65;;
46753;SDS011;32500;50.620;3.400;2023-09-18T12:09:28;107.88;;;57.10;;
46753;SDS011;32500;50.620;3.400;2023-09-18T12:11:55;108.18;;;57.33;;
46753;SDS011;32500;50.620;3.400;2023-09-18T12:14:22;107.60;;;57.60;;
46753;SDS011;32500;50.620;3.400;2023-09-18T12:16:48;108.70;;;57.70;;
46753;SDS011;32500;50.620;3.400;2023-09-18T12:19:18;108.95;;;57.15;;
46753;SDS011;32500;50.620;3.400;2023-09-18T12:21:45;107.72;;;57.03;;
46753;SDS011;32500;50.620;3.400;2023-09-18T12:24:15;109.85;;;56.92;;
46753;SDS011;32500;50.620;3.400;2023-09-18T12:26:47;111.80;;;57.17;;
46753;SDS011;32500;50.620;3.400;2023-09-18T12:29:13;107.28;;;57.03;;
46753;SDS011;32500;50.620;3.400;2023-09-18T12:31:39;108.07;;;57.42;;
46753;SDS011;32500;50.620;3.400;2023-09-18T12:34:05;108.30;;;57.13;;
46753;SDS011;32500;50.620;3.400;2023-09-18T12:36:48;108.40;;;57.45;;
46753;SDS011;32500;50.620;3.400;2023-09-18T12:39:15;108.60;;;57.72;;
46753;SDS011;32500;50.620;3.400;2023-09-18T12:41:43;108.75;;;56.92;;
46753;SDS011;32500;50.620;3.400;2023-09-18T12:44:09;107.70;;;56.92;;
46753;SDS011;32500;50.620;3.400;2023-09-18T12:46:35;108.45;;;57.15;;
46753;SDS011;32500;50.620;3.400;2023-09-18T12:51:43;107.90;;;57.08;;
46753;SDS011;32500;50.620;3.400;2023-09-18T12:54:09;110.20;;;57.45;;
46753;SDS011;32500;50.620;3.400;2023-09-18T12:56:42;109.00;;;57.42;;
46753;SDS011;32500;50.620;3.400;2023-09-18T12:59:08;109.60;;;57.05;;
46753;SDS011;32500;50.620;3.400;2023-09-18T13:01:34;110.25;;;57.33;;
46753;SDS011;32500;50.620;3.400;2023-09-18T13:03:59;110.30;;;57.33;;
46753;SDS011;32500;50.620;3.400;2023-09-18T13:06:30;108.95;;;56.85;;
46753;SDS011;32500;50.620;3.400;2023-09-18T13:08:56;109.03;;;56.95;;
46753;SDS011;32500;50.620;3.400;2023-09-18T13:11:56;108.97;;;57.08;;
46753;SDS011;32500;50.620;3.400;2023-09-18T13:14:22;109.78;;;57.20;;
46753;SDS011;32500;50.620;3.400;2023-09-18T13:16:52;106.70;;;56.63;;
46753;SDS011;32500;50.620;3.400;2023-09-18T13:19:18;109.47;;;57.03;;
46753;SDS011;32500;50.620;3.400;2023-09-18T13:21:47;109.28;;;56.50;;
46753;SDS011;32500;50.620;3.400;2023-09-18T13:24:32;107.28;;;56.80;;
46753;SDS011;32500;50.620;3.400;2023-09-18T13:26:59;108.43;;;56.90;;
46753;SDS011;32500;50.620;3.400;2023-09-18T13:29:25;109.07;;;56.38;;
46753;SDS011;32500;50.620;3.400;2023-09-18T13:31:51;107.97;;;56.50;;
46753;SDS011;32500;50.620;3.400;2023-09-18T13:34:17;108.05;;;56.47;;
46753;SDS011;32500;50.620;3.400;2023-09-18T13:36:46;106.65;;;56.60;;
46753;SDS011;32500;50.620;3.400;2023-09-18T13:39:14;112.07;;;57.03;;
46753;SDS011;32500;50.620;3.400;2023-09-18T13:41:43;107.75;;;56.63;;
46753;SDS011;32500;50.620;3.400;2023-09-18T13:44:09;108.38;;;56.90;;
46753;SDS011;32500;50.620;3.400;2023-09-18T13:46:35;108.05;;;56.90;;
46753;SDS011;32500;50.620;3.400;2023-09-18T13:49:03;107.82;;;56.83;;
46753;SDS011;32500;50.620;3.400;2023-09-18T13:51:29;108.32;;;56.55;;
46753;SDS011;32500;50.620;3.400;2023-09-18T13:53:58;108.97;;;56.38;;
46753;SDS011;32500;50.620;3.400;2023-09-18T13:56:23;109.20;;;56.47;;
46753;SDS011;32500;50.620;3.400;2023-09-18T13:58:53;106.35;;;56.13;;
46753;SDS011;32500;50.620;3.400;2023-09-18T14:01:20;107.22;;;56.97;;
46753;SDS011;32500;50.620;3.400;2023-09-18T14:03:46;108.53;;;56.08;;
46753;SDS011;32500;50.620;3.400;2023-09-18T14:06:12;106.60;;;56.47;;
46753;SDS011;32500;50.620;3.400;2023-09-18T14:08:38;106.55;;;56.65;;
46753;SDS011;32500;50.620;3.400;2023-09-18T14:11:05;106.70;;;56.75;;
46753;SDS011;32500;50.620;3.400;2023-09-18T14:13:31;106.15;;;56.40;;
46753;SDS011;32500;50.620;3.400;2023-09-18T14:15:57;108.07;;;56.85;;
46753;SDS011;32500;50.620;3.400;2023-09-18T14:18:23;106.47;;;56.67;;
46753;SDS011;32500;50.620;3.400;2023-09-18T14:23:39;107.33;;;56.50;;
46753;SDS011;32500;50.620;3.400;2023-09-18T14:26:05;106.53;;;56.45;;
46753;SDS011;32500;50.620;3.400;2023-09-18T14:28:31;108.20;;;56.78;;
46753;SDS011;32500;50.620;3.400;2023-09-18T14:30:57;106.78;;;56.58;;
46753;SDS011;32500;50.620;3.400;2023-09-18T14:33:23;109.03;;;56.40;;